sensor_id;sensor_type;location;lat;lon;timestamp;P1;durP1;ratioP1;P2;durP2;ratioP2
78402;SDS011;67687;43.508;1.504;2023-04-24T00:02:04;6.75;;;2.83;;
78402;SDS011;67687;43.508;1.504;2023-04-24T00:04:31;7.37;;;3.03;;
78402;SDS011;67687;43.508;1.504;2023-04-24T00:06:59;6.55;;;3.22;;
78402;SDS011;67687;43.508;1.504;2023-04-24T00:09:28;6.32;;;3.25;;
78402;SDS011;67687;43.508;1.504;2023-04-24T00:11:54;5.85;;;3.00;;
78402;SDS011;67687;43.508;1.504;2023-04-24T00:14:23;7.03;;;3.20;;
78402;SDS011;67687;43.508;1.504;2023-04-24T00:16:50;7.53;;;3.37;;
78402;SDS011;67687;43.508;1.504;2023-04-24T00:19:16;5.95;;;3.35;;
78402;SDS011;67687;43.508;1.504;2023-04-24T00:21:46;6.00;;;3.50;;
78402;SDS011;67687;43.508;1.504;2023-04-24T00:24:15;10.02;;;3.20;;
78402;SDS011;67687;43.508;1.504;2023-04-24T00:26:41;7.22;;;3.95;;
78402;SDS011;67687;43.508;1.504;2023-04-24T00:29:08;7.13;;;4.13;;
78402;SDS011;67687;43.508;1.504;2023-04-24T00:31:36;6.97;;;4.10;;
78402;SDS011;67687;43.508;1.504;2023-04-24T00:34:03;9.45;;;3.42;;
78402;SDS011;67687;43.508;1.504;2023-04-24T00:36:31;8.30;;;3.63;;
78402;SDS011;67687;43.508;1.504;2023-04-24T00:38:58;7.25;;;3.10;;
78402;SDS011;67687;43.508;1.504;2023-04-24T00:41:25;9.03;;;3.13;;
78402;SDS011;67687;43.508;1.504;2023-04-24T00:43:51;8.00;;;3.53;;
78402;SDS011;67687;43.508;1.504;2023-04-24T00:46:18;6.57;;;2.85;;
78402;SDS011;67687;43.508;1.504;2023-04-24T00:48:49;7.03;;;2.90;;
78402;SDS011;67687;43.508;1.504;2023-04-24T00:51:17;10.65;;;3.15;;
78402;SDS011;67687;43.508;1.504;2023-04-24T00:53:43;7.50;;;2.67;;
78402;SDS011;67687;43.508;1.504;2023-04-24T00:56:10;7.13;;;2.92;;
78402;SDS011;67687;43.508;1.504;2023-04-24T00:58:37;6.60;;;2.88;;
78402;SDS011;67687;43.508;1.504;2023-04-24T01:01:05;5.88;;;2.50;;
78402;SDS011;67687;43.508;1.504;2023-04-24T01:03:32;6.30;;;2.40;;
78402;SDS011;67687;43.508;1.504;2023-04-24T01:06:04;6.37;;;2.03;;
78402;SDS011;67687;43.508;1.504;2023-04-24T01:08:31;6.15;;;2.20;;
78402;SDS011;67687;43.508;1.504;2023-04-24T01:10:59;4.97;;;2.33;;
78402;SDS011;67687;43.508;1.504;2023-04-24T01:13:27;6.07;;;2.40;;
78402;SDS011;67687;43.508;1.504;2023-04-24T01:15:54;6.30;;;2.33;;
78402;SDS011;67687;43.508;1.504;2023-04-24T01:18:21;5.07;;;1.90;;
78402;SDS011;67687;43.508;1.504;2023-04-24T01:20:48;7.55;;;2.38;;
78402;SDS011;67687;43.508;1.504;2023-04-24T01:23:18;6.30;;;2.05;;
78402;SDS011;67687;43.508;1.504;2023-04-24T01:25:46;6.68;;;2.08;;
78402;SDS011;67687;43.508;1.504;2023-04-24T01:28:13;7.72;;;2.35;;
78402;SDS011;67687;43.508;1.504;2023-04-24T01:30:40;7.07;;;1.97;;
78402;SDS011;67687;43.508;1.504;2023-04-24T01:33:07;8.80;;;2.10;;
78402;SDS011;67687;43.508;1.504;2023-04-24T01:35:35;7.43;;;2.10;;
78402;SDS011;67687;43.508;1.504;2023-04-24T01:38:02;6.55;;;1.95;;
78402;SDS011;67687;43.508;1.504;2023-04-24T01:40:31;4.93;;;2.00;;
78402;SDS011;67687;43.508;1.504;2023-04-24T01:42:57;8.10;;;2.20;;
78402;SDS011;67687;43.508;1.504;2023-04-24T01:45:24;6.40;;;2.00;;
78402;SDS011;67687;43.508;1.504;2023-04-24T01:47:51;5.85;;;1.92;;
78402;SDS011;67687;43.508;1.504;2023-04-24T01:50:18;5.38;;;2.00;;
78402;SDS011;67687;43.508;1.504;2023-04-24T01:52:45;5.70;;;1.90;;
78402;SDS011;67687;43.508;1.504;2023-04-24T01:55:13;5.47;;;2.00;;
78402;SDS011;67687;43.508;1.504;2023-04-24T01:57:41;7.18;;;2.00;;
78402;SDS011;67687;43.508;1.504;2023-04-24T02:00:08;9.40;;;2.08;;
78402;SDS011;67687;43.508;1.504;2023-04-24T02:02:37;5.93;;;1.90;;
78402;SDS011;67687;43.508;1.504;2023-04-24T02:05:05;5.55;;;1.85;;
78402;SDS011;67687;43.508;1.504;2023-04-24T02:07:36;5.67;;;1.90;;
78402;SDS011;67687;43.508;1.504;2023-04-24T02:10:03;6.25;;;2.00;;
78402;SDS011;67687;43.508;1.504;2023-04-24T02:12:31;5.35;;;1.92;;
78402;SDS011;67687;43.508;1.504;2023-04-24T02:14:59;4.65;;;1.95;;
78402;SDS011;67687;43.508;1.504;2023-04-24T02:17:27;7.38;;;1.92;;
78402;SDS011;67687;43.508;1.504;2023-04-24T02:19:53;6.23;;;2.03;;
78402;SDS011;67687;43.508;1.504;2023-04-24T02:22:24;6.70;;;1.92;;
78402;SDS011;67687;43.508;1.504;2023-04-24T02:24:51;5.47;;;1.83;;
78402;SDS011;67687;43.508;1.504;2023-04-24T02:27:18;9.18;;;2.28;;
78402;SDS011;67687;43.508;1.504;2023-04-24T02:29:45;6.15;;;2.42;;
78402;SDS011;67687;43.508;1.504;2023-04-24T02:32:13;7.10;;;2.33;;
78402;SDS011;67687;43.508;1.504;2023-04-24T02:34:40;7.45;;;2.42;;
78402;SDS011;67687;43.508;1.504;2023-04-24T02:37:07;4.68;;;2.05;;
78402;SDS011;67687;43.508;1.504;2023-04-24T02:39:34;4.68;;;2.10;;
78402;SDS011;67687;43.508;1.504;2023-04-24T02:42:01;6.85;;;1.70;;
78402;SDS011;67687;43.508;1.504;2023-04-24T02:44:28;4.60;;;1.97;;
78402;SDS011;67687;43.508;1.504;2023-04-24T02:46:54;8.88;;;2.10;;
78402;SDS011;67687;43.508;1.504;2023-04-24T02:49:23;6.22;;;1.90;;
78402;SDS011;67687;43.508;1.504;2023-04-24T02:51:51;6.65;;;1.90;;
78402;SDS011;67687;43.508;1.504;2023-04-24T02:54:17;8.18;;;1.88;;
78402;SDS011;67687;43.508;1.504;2023-04-24T02:56:45;7.53;;;2.23;;
78402;SDS011;67687;43.508;1.504;2023-04-24T02:59:11;8.35;;;2.20;;
78402;SDS011;67687;43.508;1.504;2023-04-24T03:01:38;8.45;;;2.10;;
78402;SDS011;67687;43.508;1.504;2023-04-24T03:04:05;4.88;;;1.95;;
78402;SDS011;67687;43.508;1.504;2023-04-24T03:06:34;5.53;;;1.85;;
78402;SDS011;67687;43.508;1.504;2023-04-24T03:09:01;7.47;;;1.70;;
78402;SDS011;67687;43.508;1.504;2023-04-24T03:11:28;7.20;;;1.77;;
78402;SDS011;67687;43.508;1.504;2023-04-24T03:13:55;4.53;;;1.73;;
78402;SDS011;67687;43.508;1.504;2023-04-24T03:16:22;5.43;;;2.03;;
78402;SDS011;67687;43.508;1.504;2023-04-24T03:18:48;6.00;;;2.03;;
78402;SDS011;67687;43.508;1.504;2023-04-24T03:21:15;6.67;;;1.80;;
78402;SDS011;67687;43.508;1.504;2023-04-24T03:23:43;7.22;;;1.98;;
78402;SDS011;67687;43.508;1.504;2023-04-24T03:26:10;4.95;;;1.88;;
78402;SDS011;67687;43.508;1.504;2023-04-24T03:28:37;4.63;;;1.77;;
78402;SDS011;67687;43.508;1.504;2023-04-24T03:31:04;4.75;;;1.50;;
78402;SDS011;67687;43.508;1.504;2023-04-24T03:33:31;9.60;;;2.10;;
78402;SDS011;67687;43.508;1.504;2023-04-24T03:35:57;8.32;;;2.10;;
78402;SDS011;67687;43.508;1.504;2023-04-24T03:38:24;6.82;;;1.73;;
78402;SDS011;67687;43.508;1.504;2023-04-24T03:40:53;5.70;;;2.00;;
78402;SDS011;67687;43.508;1.504;2023-04-24T03:43:19;6.00;;;1.90;;
78402;SDS011;67687;43.508;1.504;2023-04-24T03:45:46;4.80;;;1.73;;
78402;SDS011;67687;43.508;1.504;2023-04-24T03:48:13;7.88;;;2.00;;
78402;SDS011;67687;43.508;1.504;2023-04-24T03:50:40;7.75;;;1.92;;
78402;SDS011;67687;43.508;1.504;2023-04-24T03:53:07;5.30;;;1.70;;
78402;SDS011;67687;43.508;1.504;2023-04-24T03:55:34;9.30;;;1.83;;
78402;SDS011;67687;43.508;1.504;2023-04-24T03:58:02;6.90;;;1.80;;
78402;SDS011;67687;43.508;1.504;2023-04-24T04:00:29;7.65;;;1.98;;
78402;SDS011;67687;43.508;1.504;2023-04-24T04:02:56;9.57;;;2.10;;
78402;SDS011;67687;43.508;1.504;2023-04-24T04:05:23;7.55;;;2.10;;
78402;SDS011;67687;43.508;1.504;2023-04-24T04:07:50;5.60;;;1.98;;
78402;SDS011;67687;43.508;1.504;2023-04-24T04:10:17;6.97;;;1.90;;
78402;SDS011;67687;43.508;1.504;2023-04-24T04:12:44;8.57;;;1.95;;
78402;SDS011;67687;43.508;1.504;2023-04-24T04:15:12;7.70;;;1.90;;
78402;SDS011;67687;43.508;1.504;2023-04-24T04:17:39;6.88;;;1.50;;
78402;SDS011;67687;43.508;1.504;2023-04-24T04:20:06;9.38;;;1.98;;
78402;SDS011;67687;43.508;1.504;2023-04-24T04:22:35;8.70;;;1.97;;
78402;SDS011;67687;43.508;1.504;2023-04-24T04:25:02;8.30;;;1.73;;
78402;SDS011;67687;43.508;1.504;2023-04-24T04:27:29;6.68;;;2.00;;
78402;SDS011;67687;43.508;1.504;2023-04-24T04:29:57;8.48;;;1.92;;
78402;SDS011;67687;43.508;1.504;2023-04-24T04:32:25;6.05;;;1.83;;
78402;SDS011;67687;43.508;1.504;2023-04-24T04:34:52;7.97;;;1.80;;
78402;SDS011;67687;43.508;1.504;2023-04-24T04:37:19;6.63;;;1.60;;
78402;SDS011;67687;43.508;1.504;2023-04-24T04:39:46;5.60;;;1.63;;
78402;SDS011;67687;43.508;1.504;2023-04-24T04:42:12;6.55;;;1.52;;
78402;SDS011;67687;43.508;1.504;2023-04-24T04:44:40;5.93;;;1.70;;
78402;SDS011;67687;43.508;1.504;2023-04-24T04:47:07;6.57;;;2.03;;
78402;SDS011;67687;43.508;1.504;2023-04-24T04:49:37;7.28;;;1.40;;
78402;SDS011;67687;43.508;1.504;2023-04-24T04:52:04;7.47;;;1.67;;
78402;SDS011;67687;43.508;1.504;2023-04-24T04:54:31;6.30;;;1.38;;
78402;SDS011;67687;43.508;1.504;2023-04-24T04:56:58;7.78;;;1.75;;
78402;SDS011;67687;43.508;1.504;2023-04-24T04:59:25;5.07;;;1.30;;
78402;SDS011;67687;43.508;1.504;2023-04-24T05:01:52;6.85;;;1.40;;
78402;SDS011;67687;43.508;1.504;2023-04-24T05:04:19;7.88;;;2.03;;
78402;SDS011;67687;43.508;1.504;2023-04-24T05:06:47;5.10;;;1.90;;
78402;SDS011;67687;43.508;1.504;2023-04-24T05:09:16;7.18;;;2.17;;
78402;SDS011;67687;43.508;1.504;2023-04-24T05:11:43;5.97;;;1.63;;
78402;SDS011;67687;43.508;1.504;2023-04-24T05:14:09;8.07;;;1.90;;
78402;SDS011;67687;43.508;1.504;2023-04-24T05:16:37;9.10;;;2.05;;
78402;SDS011;67687;43.508;1.504;2023-04-24T05:19:04;6.60;;;1.70;;
78402;SDS011;67687;43.508;1.504;2023-04-24T05:21:32;7.68;;;2.00;;
78402;SDS011;67687;43.508;1.504;2023-04-24T05:24:00;7.97;;;2.00;;
78402;SDS011;67687;43.508;1.504;2023-04-24T05:26:27;6.03;;;1.40;;
78402;SDS011;67687;43.508;1.504;2023-04-24T05:28:54;7.65;;;1.92;;
78402;SDS011;67687;43.508;1.504;2023-04-24T05:31:20;7.55;;;1.80;;
78402;SDS011;67687;43.508;1.504;2023-04-24T05:33:47;10.77;;;2.15;;
78402;SDS011;67687;43.508;1.504;2023-04-24T05:36:14;6.33;;;1.90;;
78402;SDS011;67687;43.508;1.504;2023-04-24T05:38:41;8.38;;;2.20;;
78402;SDS011;67687;43.508;1.504;2023-04-24T05:41:09;5.80;;;1.90;;
78402;SDS011;67687;43.508;1.504;2023-04-24T05:43:36;9.30;;;2.08;;
78402;SDS011;67687;43.508;1.504;2023-04-24T05:46:02;7.32;;;1.92;;
78402;SDS011;67687;43.508;1.504;2023-04-24T05:48:29;7.73;;;2.17;;
78402;SDS011;67687;43.508;1.504;2023-04-24T05:50:56;8.90;;;2.03;;
78402;SDS011;67687;43.508;1.504;2023-04-24T05:53:23;7.88;;;2.00;;
78402;SDS011;67687;43.508;1.504;2023-04-24T05:55:50;7.55;;;2.20;;
78402;SDS011;67687;43.508;1.504;2023-04-24T05:58:18;5.80;;;2.10;;
78402;SDS011;67687;43.508;1.504;2023-04-24T06:00:45;9.60;;;2.10;;
78402;SDS011;67687;43.508;1.504;2023-04-24T06:03:12;6.00;;;1.67;;
78402;SDS011;67687;43.508;1.504;2023-04-24T06:05:39;9.32;;;2.13;;
78402;SDS011;67687;43.508;1.504;2023-04-24T06:08:06;6.22;;;2.05;;
78402;SDS011;67687;43.508;1.504;2023-04-24T06:10:33;6.30;;;2.10;;
78402;SDS011;67687;43.508;1.504;2023-04-24T06:13:00;10.17;;;2.30;;
78402;SDS011;67687;43.508;1.504;2023-04-24T06:15:29;8.45;;;2.20;;
78402;SDS011;67687;43.508;1.504;2023-04-24T06:17:56;7.65;;;2.08;;
78402;SDS011;67687;43.508;1.504;2023-04-24T06:20:23;9.45;;;1.98;;
78402;SDS011;67687;43.508;1.504;2023-04-24T06:22:51;7.88;;;2.30;;
78402;SDS011;67687;43.508;1.504;2023-04-24T06:25:18;10.37;;;2.60;;
78402;SDS011;67687;43.508;1.504;2023-04-24T06:27:45;7.32;;;2.33;;
78402;SDS011;67687;43.508;1.504;2023-04-24T06:30:12;10.13;;;2.30;;
78402;SDS011;67687;43.508;1.504;2023-04-24T06:32:40;7.45;;;2.20;;
78402;SDS011;67687;43.508;1.504;2023-04-24T06:35:10;6.07;;;2.15;;
78402;SDS011;67687;43.508;1.504;2023-04-24T06:37:37;8.20;;;1.80;;
78402;SDS011;67687;43.508;1.504;2023-04-24T06:40:06;7.97;;;1.83;;
78402;SDS011;67687;43.508;1.504;2023-04-24T06:42:33;8.73;;;1.83;;
78402;SDS011;67687;43.508;1.504;2023-04-24T06:45:00;8.65;;;2.30;;
78402;SDS011;67687;43.508;1.504;2023-04-24T06:47:27;6.70;;;2.13;;
78402;SDS011;67687;43.508;1.504;2023-04-24T06:49:55;4.83;;;2.00;;
78402;SDS011;67687;43.508;1.504;2023-04-24T06:52:22;8.13;;;2.10;;
78402;SDS011;67687;43.508;1.504;2023-04-24T06:54:49;9.50;;;2.30;;
78402;SDS011;67687;43.508;1.504;2023-04-24T06:57:15;7.25;;;2.13;;
78402;SDS011;67687;43.508;1.504;2023-04-24T06:59:46;7.90;;;2.28;;
78402;SDS011;67687;43.508;1.504;2023-04-24T07:02:12;9.37;;;2.27;;
78402;SDS011;67687;43.508;1.504;2023-04-24T07:04:39;8.50;;;2.20;;
78402;SDS011;67687;43.508;1.504;2023-04-24T07:07:08;10.63;;;2.58;;
78402;SDS011;67687;43.508;1.504;2023-04-24T07:09:38;7.43;;;2.10;;
78402;SDS011;67687;43.508;1.504;2023-04-24T07:12:07;7.85;;;2.08;;
78402;SDS011;67687;43.508;1.504;2023-04-24T07:14:35;6.30;;;2.30;;
78402;SDS011;67687;43.508;1.504;2023-04-24T07:17:02;7.57;;;2.42;;
78402;SDS011;67687;43.508;1.504;2023-04-24T07:19:29;8.27;;;2.10;;
78402;SDS011;67687;43.508;1.504;2023-04-24T07:21:56;6.45;;;2.00;;
78402;SDS011;67687;43.508;1.504;2023-04-24T07:24:24;9.40;;;2.13;;
78402;SDS011;67687;43.508;1.504;2023-04-24T07:26:52;8.63;;;2.30;;
78402;SDS011;67687;43.508;1.504;2023-04-24T07:29:19;8.90;;;2.08;;
78402;SDS011;67687;43.508;1.504;2023-04-24T07:31:46;9.50;;;1.95;;
78402;SDS011;67687;43.508;1.504;2023-04-24T07:34:14;10.05;;;2.05;;
78402;SDS011;67687;43.508;1.504;2023-04-24T07:36:41;6.40;;;2.15;;
78402;SDS011;67687;43.508;1.504;2023-04-24T07:39:07;6.43;;;2.10;;
78402;SDS011;67687;43.508;1.504;2023-04-24T07:41:36;5.63;;;2.05;;
78402;SDS011;67687;43.508;1.504;2023-04-24T07:44:02;8.70;;;2.10;;
78402;SDS011;67687;43.508;1.504;2023-04-24T07:46:30;7.22;;;1.92;;
78402;SDS011;67687;43.508;1.504;2023-04-24T07:48:56;8.85;;;1.98;;
78402;SDS011;67687;43.508;1.504;2023-04-24T07:51:24;8.83;;;2.07;;
78402;SDS011;67687;43.508;1.504;2023-04-24T07:54:03;7.40;;;1.85;;
78402;SDS011;67687;43.508;1.504;2023-04-24T07:56:30;6.47;;;1.60;;
78402;SDS011;67687;43.508;1.504;2023-04-24T07:58:59;5.90;;;1.50;;
78402;SDS011;67687;43.508;1.504;2023-04-24T08:01:27;6.18;;;1.30;;
78402;SDS011;67687;43.508;1.504;2023-04-24T08:03:54;3.77;;;1.03;;
78402;SDS011;67687;43.508;1.504;2023-04-24T08:06:21;5.75;;;1.30;;
78402;SDS011;67687;43.508;1.504;2023-04-24T08:08:49;5.93;;;1.50;;
78402;SDS011;67687;43.508;1.504;2023-04-24T08:11:16;5.55;;;1.27;;
78402;SDS011;67687;43.508;1.504;2023-04-24T08:13:43;5.78;;;1.45;;
78402;SDS011;67687;43.508;1.504;2023-04-24T08:16:12;3.93;;;1.20;;
78402;SDS011;67687;43.508;1.504;2023-04-24T08:18:39;6.68;;;1.23;;
78402;SDS011;67687;43.508;1.504;2023-04-24T08:21:06;4.63;;;1.58;;
78402;SDS011;67687;43.508;1.504;2023-04-24T08:23:33;3.90;;;1.38;;
78402;SDS011;67687;43.508;1.504;2023-04-24T08:26:00;5.40;;;1.60;;
78402;SDS011;67687;43.508;1.504;2023-04-24T08:28:32;8.27;;;2.07;;
78402;SDS011;67687;43.508;1.504;2023-04-24T08:31:08;6.47;;;1.30;;
78402;SDS011;67687;43.508;1.504;2023-04-24T08:33:42;5.93;;;1.80;;
78402;SDS011;67687;43.508;1.504;2023-04-24T08:36:10;5.45;;;1.35;;
78402;SDS011;67687;43.508;1.504;2023-04-24T08:38:38;5.10;;;1.60;;
78402;SDS011;67687;43.508;1.504;2023-04-24T08:41:05;5.67;;;1.77;;
78402;SDS011;67687;43.508;1.504;2023-04-24T08:43:35;5.22;;;1.50;;
78402;SDS011;67687;43.508;1.504;2023-04-24T08:46:03;6.00;;;1.48;;
78402;SDS011;67687;43.508;1.504;2023-04-24T08:48:36;4.47;;;1.15;;
78402;SDS011;67687;43.508;1.504;2023-04-24T08:51:14;5.00;;;1.50;;
78402;SDS011;67687;43.508;1.504;2023-04-24T09:00:06;3.63;;;0.88;;
78402;SDS011;67687;43.508;1.504;2023-04-24T09:02:35;6.40;;;1.30;;
78402;SDS011;67687;43.508;1.504;2023-04-24T09:05:03;6.72;;;1.27;;
78402;SDS011;67687;43.508;1.504;2023-04-24T09:11:10;6.22;;;1.20;;
78402;SDS011;67687;43.508;1.504;2023-04-24T09:13:37;4.55;;;1.27;;
78402;SDS011;67687;43.508;1.504;2023-04-24T09:16:04;4.50;;;1.30;;
78402;SDS011;67687;43.508;1.504;2023-04-24T09:24:37;4.47;;;1.20;;
78402;SDS011;67687;43.508;1.504;2023-04-24T09:29:53;4.80;;;1.30;;
78402;SDS011;67687;43.508;1.504;2023-04-24T09:32:21;4.32;;;1.13;;
78402;SDS011;67687;43.508;1.504;2023-04-24T09:35:04;5.43;;;1.30;;
78402;SDS011;67687;43.508;1.504;2023-04-24T09:37:34;3.55;;;0.90;;
78402;SDS011;67687;43.508;1.504;2023-04-24T09:40:12;4.93;;;1.15;;
78402;SDS011;67687;43.508;1.504;2023-04-24T09:42:46;4.63;;;1.30;;
78402;SDS011;67687;43.508;1.504;2023-04-24T09:45:14;3.70;;;1.17;;
78402;SDS011;67687;43.508;1.504;2023-04-24T09:47:42;4.93;;;1.27;;
78402;SDS011;67687;43.508;1.504;2023-04-24T09:52:45;2.88;;;0.90;;
78402;SDS011;67687;43.508;1.504;2023-04-24T09:58:05;6.30;;;1.30;;
78402;SDS011;67687;43.508;1.504;2023-04-24T10:00:36;5.37;;;1.43;;
78402;SDS011;67687;43.508;1.504;2023-04-24T10:03:03;4.40;;;0.85;;
78402;SDS011;67687;43.508;1.504;2023-04-24T10:08:10;3.80;;;0.95;;
78402;SDS011;67687;43.508;1.504;2023-04-24T10:10:40;4.65;;;1.10;;
78402;SDS011;67687;43.508;1.504;2023-04-24T10:13:09;4.53;;;1.10;;
78402;SDS011;67687;43.508;1.504;2023-04-24T10:15:37;4.25;;;1.20;;
78402;SDS011;67687;43.508;1.504;2023-04-24T10:20:43;5.78;;;1.00;;
78402;SDS011;67687;43.508;1.504;2023-04-24T10:25:49;7.13;;;1.27;;
78402;SDS011;67687;43.508;1.504;2023-04-24T10:28:18;4.47;;;1.00;;
78402;SDS011;67687;43.508;1.504;2023-04-24T10:30:51;5.65;;;1.20;;
78402;SDS011;67687;43.508;1.504;2023-04-24T10:33:21;3.70;;;1.10;;
78402;SDS011;67687;43.508;1.504;2023-04-24T10:43:44;4.57;;;1.10;;
78402;SDS011;67687;43.508;1.504;2023-04-24T10:59:50;4.18;;;1.30;;
78402;SDS011;67687;43.508;1.504;2023-04-24T11:08:12;3.83;;;1.10;;
78402;SDS011;67687;43.508;1.504;2023-04-24T11:10:54;3.38;;;0.95;;
78402;SDS011;67687;43.508;1.504;2023-04-24T11:13:22;4.22;;;0.85;;
78402;SDS011;67687;43.508;1.504;2023-04-24T11:18:36;5.73;;;1.10;;
78402;SDS011;67687;43.508;1.504;2023-04-24T11:21:09;5.22;;;0.98;;
78402;SDS011;67687;43.508;1.504;2023-04-24T11:23:37;3.72;;;1.13;;
78402;SDS011;67687;43.508;1.504;2023-04-24T11:26:12;6.65;;;1.55;;
78402;SDS011;67687;43.508;1.504;2023-04-24T11:39:10;4.45;;;1.27;;
78402;SDS011;67687;43.508;1.504;2023-04-24T11:41:39;3.03;;;1.00;;
78402;SDS011;67687;43.508;1.504;2023-04-24T11:44:08;5.27;;;1.10;;
78402;SDS011;67687;43.508;1.504;2023-04-24T11:49:14;5.32;;;1.20;;
78402;SDS011;67687;43.508;1.504;2023-04-24T11:54:18;5.00;;;1.20;;
78402;SDS011;67687;43.508;1.504;2023-04-24T11:56:46;5.33;;;1.10;;
78402;SDS011;67687;43.508;1.504;2023-04-24T11:59:13;4.75;;;1.15;;
78402;SDS011;67687;43.508;1.504;2023-04-24T12:01:42;3.17;;;1.10;;
78402;SDS011;67687;43.508;1.504;2023-04-24T12:04:10;4.03;;;1.27;;
78402;SDS011;67687;43.508;1.504;2023-04-24T12:09:12;5.90;;;1.40;;
78402;SDS011;67687;43.508;1.504;2023-04-24T12:14:21;3.95;;;1.40;;
78402;SDS011;67687;43.508;1.504;2023-04-24T12:21:59;4.93;;;1.50;;
78402;SDS011;67687;43.508;1.504;2023-04-24T12:24:27;4.82;;;1.50;;
78402;SDS011;67687;43.508;1.504;2023-04-24T12:26:56;4.63;;;1.40;;
78402;SDS011;67687;43.508;1.504;2023-04-24T12:29:25;4.20;;;1.20;;
78402;SDS011;67687;43.508;1.504;2023-04-24T12:34:43;4.17;;;1.40;;
78402;SDS011;67687;43.508;1.504;2023-04-24T12:37:10;5.03;;;1.35;;
78402;SDS011;67687;43.508;1.504;2023-04-24T12:39:37;3.22;;;1.20;;
78402;SDS011;67687;43.508;1.504;2023-04-24T12:42:04;4.03;;;1.23;;
78402;SDS011;67687;43.508;1.504;2023-04-24T12:44:33;5.80;;;1.20;;
78402;SDS011;67687;43.508;1.504;2023-04-24T12:47:02;5.87;;;1.50;;
78402;SDS011;67687;43.508;1.504;2023-04-24T12:49:29;4.38;;;1.25;;
78402;SDS011;67687;43.508;1.504;2023-04-24T12:51:56;4.18;;;1.20;;
78402;SDS011;67687;43.508;1.504;2023-04-24T12:54:23;3.88;;;1.40;;
78402;SDS011;67687;43.508;1.504;2023-04-24T12:56:50;4.70;;;1.30;;
78402;SDS011;67687;43.508;1.504;2023-04-24T12:59:17;5.70;;;1.47;;
78402;SDS011;67687;43.508;1.504;2023-04-24T13:01:46;6.03;;;1.30;;
78402;SDS011;67687;43.508;1.504;2023-04-24T13:04:13;4.07;;;1.00;;
78402;SDS011;67687;43.508;1.504;2023-04-24T13:06:42;3.92;;;1.40;;
78402;SDS011;67687;43.508;1.504;2023-04-24T13:09:08;4.95;;;1.25;;
78402;SDS011;67687;43.508;1.504;2023-04-24T13:11:36;4.07;;;1.10;;
78402;SDS011;67687;43.508;1.504;2023-04-24T13:14:03;4.18;;;1.15;;
78402;SDS011;67687;43.508;1.504;2023-04-24T13:16:29;4.50;;;1.40;;
78402;SDS011;67687;43.508;1.504;2023-04-24T13:18:58;4.93;;;1.10;;
78402;SDS011;67687;43.508;1.504;2023-04-24T13:21:25;3.45;;;1.10;;
78402;SDS011;67687;43.508;1.504;2023-04-24T13:23:52;3.60;;;1.37;;
78402;SDS011;67687;43.508;1.504;2023-04-24T13:26:19;3.58;;;1.10;;
78402;SDS011;67687;43.508;1.504;2023-04-24T13:28:46;4.50;;;1.58;;
78402;SDS011;67687;43.508;1.504;2023-04-24T13:31:13;3.80;;;1.10;;
78402;SDS011;67687;43.508;1.504;2023-04-24T13:33:40;3.83;;;1.08;;
78402;SDS011;67687;43.508;1.504;2023-04-24T13:36:09;5.03;;;1.30;;
78402;SDS011;67687;43.508;1.504;2023-04-24T13:38:36;7.88;;;1.50;;
78402;SDS011;67687;43.508;1.504;2023-04-24T13:41:03;4.30;;;1.10;;
78402;SDS011;67687;43.508;1.504;2023-04-24T13:43:30;3.75;;;1.23;;
78402;SDS011;67687;43.508;1.504;2023-04-24T13:45:57;6.85;;;1.20;;
78402;SDS011;67687;43.508;1.504;2023-04-24T13:48:27;4.17;;;1.47;;
78402;SDS011;67687;43.508;1.504;2023-04-24T13:50:53;4.05;;;1.40;;
78402;SDS011;67687;43.508;1.504;2023-04-24T13:53:22;4.07;;;1.50;;
78402;SDS011;67687;43.508;1.504;2023-04-24T13:55:50;6.10;;;1.50;;
78402;SDS011;67687;43.508;1.504;2023-04-24T13:58:17;4.20;;;1.30;;
78402;SDS011;67687;43.508;1.504;2023-04-24T14:00:44;5.43;;;1.20;;
78402;SDS011;67687;43.508;1.504;2023-04-24T14:03:10;4.72;;;1.25;;
78402;SDS011;67687;43.508;1.504;2023-04-24T14:05:37;4.95;;;1.48;;
78402;SDS011;67687;43.508;1.504;2023-04-24T14:08:04;4.20;;;1.40;;
78402;SDS011;67687;43.508;1.504;2023-04-24T14:10:33;4.35;;;1.25;;
78402;SDS011;67687;43.508;1.504;2023-04-24T14:13:00;4.07;;;1.63;;
78402;SDS011;67687;43.508;1.504;2023-04-24T14:15:27;4.10;;;1.20;;
78402;SDS011;67687;43.508;1.504;2023-04-24T14:17:54;4.57;;;1.13;;
78402;SDS011;67687;43.508;1.504;2023-04-24T14:20:22;3.97;;;1.20;;
78402;SDS011;67687;43.508;1.504;2023-04-24T14:22:50;6.85;;;1.20;;
78402;SDS011;67687;43.508;1.504;2023-04-24T14:25:16;4.90;;;1.50;;
78402;SDS011;67687;43.508;1.504;2023-04-24T14:27:46;5.30;;;1.50;;
78402;SDS011;67687;43.508;1.504;2023-04-24T14:30:14;4.88;;;1.20;;
78402;SDS011;67687;43.508;1.504;2023-04-24T14:32:41;4.10;;;1.45;;
78402;SDS011;67687;43.508;1.504;2023-04-24T14:35:09;5.10;;;1.33;;
78402;SDS011;67687;43.508;1.504;2023-04-24T14:37:38;5.73;;;1.30;;
78402;SDS011;67687;43.508;1.504;2023-04-24T14:40:06;5.05;;;1.42;;
78402;SDS011;67687;43.508;1.504;2023-04-24T14:42:34;4.05;;;1.20;;
78402;SDS011;67687;43.508;1.504;2023-04-24T14:45:03;4.72;;;1.00;;
78402;SDS011;67687;43.508;1.504;2023-04-24T14:47:31;6.13;;;1.70;;
78402;SDS011;67687;43.508;1.504;2023-04-24T14:49:59;3.97;;;1.10;;
78402;SDS011;67687;43.508;1.504;2023-04-24T14:52:26;6.03;;;1.45;;
78402;SDS011;67687;43.508;1.504;2023-04-24T14:54:53;5.57;;;1.45;;
78402;SDS011;67687;43.508;1.504;2023-04-24T14:57:20;4.70;;;1.33;;
78402;SDS011;67687;43.508;1.504;2023-04-24T14:59:47;4.57;;;1.60;;
78402;SDS011;67687;43.508;1.504;2023-04-24T15:02:15;6.40;;;1.53;;
78402;SDS011;67687;43.508;1.504;2023-04-24T15:04:42;5.05;;;1.50;;
78402;SDS011;67687;43.508;1.504;2023-04-24T15:07:08;5.82;;;1.70;;
78402;SDS011;67687;43.508;1.504;2023-04-24T15:09:35;5.38;;;1.48;;
78402;SDS011;67687;43.508;1.504;2023-04-24T15:12:03;4.00;;;1.30;;
78402;SDS011;67687;43.508;1.504;2023-04-24T15:14:31;4.63;;;1.20;;
78402;SDS011;67687;43.508;1.504;2023-04-24T15:16:58;4.38;;;1.70;;
78402;SDS011;67687;43.508;1.504;2023-04-24T15:19:27;5.95;;;2.15;;
78402;SDS011;67687;43.508;1.504;2023-04-24T15:24:47;6.47;;;1.52;;
78402;SDS011;67687;43.508;1.504;2023-04-24T15:27:14;7.53;;;2.10;;
78402;SDS011;67687;43.508;1.504;2023-04-24T15:29:41;4.60;;;1.52;;
78402;SDS011;67687;43.508;1.504;2023-04-24T15:32:10;3.83;;;1.38;;
78402;SDS011;67687;43.508;1.504;2023-04-24T15:34:39;5.80;;;1.50;;
78402;SDS011;67687;43.508;1.504;2023-04-24T15:37:07;5.03;;;1.70;;
78402;SDS011;67687;43.508;1.504;2023-04-24T15:39:34;5.03;;;1.63;;
78402;SDS011;67687;43.508;1.504;2023-04-24T15:42:01;5.18;;;1.20;;
78402;SDS011;67687;43.508;1.504;2023-04-24T15:44:29;4.78;;;1.20;;
78402;SDS011;67687;43.508;1.504;2023-04-24T15:46:57;3.78;;;1.30;;
78402;SDS011;67687;43.508;1.504;2023-04-24T15:49:27;5.50;;;1.67;;
78402;SDS011;67687;43.508;1.504;2023-04-24T15:51:55;7.73;;;1.50;;
78402;SDS011;67687;43.508;1.504;2023-04-24T15:54:23;5.85;;;1.38;;
78402;SDS011;67687;43.508;1.504;2023-04-24T15:56:50;5.68;;;1.63;;
78402;SDS011;67687;43.508;1.504;2023-04-24T15:59:17;4.43;;;1.52;;
78402;SDS011;67687;43.508;1.504;2023-04-24T16:01:44;5.43;;;1.50;;
78402;SDS011;67687;43.508;1.504;2023-04-24T16:04:11;5.30;;;1.30;;
78402;SDS011;67687;43.508;1.504;2023-04-24T16:06:38;5.03;;;1.60;;
78402;SDS011;67687;43.508;1.504;2023-04-24T16:09:15;4.60;;;1.40;;
78402;SDS011;67687;43.508;1.504;2023-04-24T16:11:42;5.32;;;1.70;;
78402;SDS011;67687;43.508;1.504;2023-04-24T16:14:09;5.70;;;1.65;;
78402;SDS011;67687;43.508;1.504;2023-04-24T16:16:36;5.17;;;1.60;;
78402;SDS011;67687;43.508;1.504;2023-04-24T16:19:03;5.00;;;1.40;;
78402;SDS011;67687;43.508;1.504;2023-04-24T16:21:32;5.18;;;1.92;;
78402;SDS011;67687;43.508;1.504;2023-04-24T16:24:19;4.88;;;1.35;;
78402;SDS011;67687;43.508;1.504;2023-04-24T16:26:47;6.95;;;1.80;;